createdAt,value
2022-11-24T00:01:09.855Z,15.77
2022-11-24T00:03:36.854Z,13.70
2022-11-24T00:06:05.323Z,11.60
2022-11-24T00:08:31.982Z,12.93
2022-11-24T00:11:22.904Z,9.95
2022-11-24T00:13:50.494Z,10.93
2022-11-24T00:16:19.981Z,15.40
2022-11-24T00:18:48.122Z,15.05
2022-11-24T00:21:18.885Z,10.88
2022-11-24T00:23:46.075Z,16.73
2022-11-24T00:26:23.846Z,13.38
2022-11-24T00:28:52.478Z,20.40
2022-11-24T00:31:20.819Z,15.60
2022-11-24T00:33:48.610Z,14.50
2022-11-24T00:36:15.844Z,11.60
2022-11-24T00:38:42.763Z,14.18
2022-11-24T00:41:09.465Z,23.95
2022-11-24T00:43:36.148Z,10.15
2022-11-24T00:46:02.944Z,12.20
2022-11-24T00:48:30.698Z,14.60
2022-11-24T00:50:58.250Z,15.00
2022-11-24T00:53:25.400Z,24.77
2022-11-24T00:55:52.483Z,18.67
2022-11-24T00:58:19.416Z,17.05
2022-11-24T01:00:46.080Z,17.13
2022-11-24T01:03:13.781Z,14.82
2022-11-24T01:05:40.693Z,28.90
2022-11-24T01:08:07.754Z,17.92
2022-11-24T01:10:34.418Z,12.43
2022-11-24T01:13:01.248Z,17.45
2022-11-24T01:15:30.123Z,18.10
2022-11-24T01:17:57.474Z,21.40
2022-11-24T01:20:24.122Z,14.35
2022-11-24T01:22:50.774Z,9.38
2022-11-24T01:25:17.566Z,14.75
2022-11-24T01:27:44.244Z,12.32
2022-11-24T01:30:11.596Z,19.73
2022-11-24T01:32:38.321Z,16.92
2022-11-24T01:35:06.209Z,9.98
2022-11-24T01:37:33.124Z,6.93
2022-11-24T01:39:59.794Z,15.25
2022-11-24T01:42:26.451Z,12.45
2022-11-24T01:45:32.392Z,17.55
2022-11-24T01:48:00.848Z,10.38
2022-11-24T01:50:27.827Z,16.10
2022-11-24T01:52:55.546Z,16.10
2022-11-24T01:55:26.178Z,8.85
2022-11-24T01:58:08.217Z,10.68
2022-11-24T02:00:37.193Z,9.38
2022-11-24T02:03:04.515Z,12.85
2022-11-24T02:05:41.793Z,13.88
2022-11-24T02:08:51.458Z,11.45
2022-11-24T02:11:19.255Z,9.65
2022-11-24T02:13:46.846Z,13.98
2022-11-24T02:16:13.644Z,18.15
2022-11-24T02:18:41.398Z,16.30
2022-11-24T02:21:08.493Z,23.08
2022-11-24T02:23:49.982Z,15.52
2022-11-24T02:26:37.570Z,10.68
2022-11-24T02:29:04.312Z,11.63
2022-11-24T02:31:31.120Z,14.43
2022-11-24T02:33:58.271Z,14.07
2022-11-24T02:36:24.897Z,17.27
2022-11-24T02:38:51.537Z,17.27
2022-11-24T02:41:20.743Z,17.67
2022-11-24T02:43:53.401Z,18.52
2022-11-24T02:46:20.166Z,10.27
2022-11-24T02:48:46.933Z,13.02
2022-11-24T02:51:13.573Z,16.33
2022-11-24T02:53:40.210Z,18.42
2022-11-24T02:56:07.253Z,8.40
2022-11-24T02:58:33.867Z,15.10
2022-11-24T03:01:00.695Z,10.27
2022-11-24T03:03:27.605Z,15.63
2022-11-24T03:05:54.379Z,15.43
2022-11-24T03:08:21.127Z,18.48
2022-11-24T03:10:47.946Z,14.48
2022-11-24T03:13:14.712Z,12.00
2022-11-24T03:15:41.426Z,10.05
2022-11-24T03:18:08.235Z,9.63
2022-11-24T03:20:34.882Z,9.15
2022-11-24T03:23:01.577Z,14.07
2022-11-24T03:25:28.242Z,15.95
2022-11-24T03:27:58.189Z,19.38
2022-11-24T03:30:25.175Z,17.33
2022-11-24T03:32:53.620Z,11.38
2022-11-24T03:35:21.151Z,10.85
2022-11-24T03:37:47.898Z,13.90
2022-11-24T03:40:14.709Z,18.05
2022-11-24T03:42:41.394Z,13.40
2022-11-24T03:47:55.227Z,10.73
2022-11-24T03:50:21.829Z,17.08
2022-11-24T03:52:48.431Z,16.20
2022-11-24T03:55:15.191Z,25.77
2022-11-24T03:57:41.815Z,17.13
2022-11-24T04:00:09.449Z,16.55
2022-11-24T04:02:36.224Z,17.75
2022-11-24T04:05:02.892Z,18.92
2022-11-24T04:07:29.597Z,20.33
2022-11-24T04:09:56.323Z,11.30
2022-11-24T04:12:41.435Z,18.45
2022-11-24T04:15:08.595Z,16.33
2022-11-24T04:17:35.205Z,11.70
2022-11-24T04:20:02.014Z,9.77
2022-11-24T04:22:28.752Z,13.85
2022-11-24T04:24:55.347Z,12.95
2022-11-24T04:27:22.020Z,14.52
2022-11-24T04:29:48.815Z,6.53
2022-11-24T04:32:15.469Z,11.38
2022-11-24T04:34:42.110Z,20.45
2022-11-24T04:37:08.916Z,15.57
2022-11-24T04:39:35.643Z,23.80
2022-11-24T04:42:02.307Z,16.73
2022-11-24T04:44:28.946Z,16.35
2022-11-24T04:46:55.707Z,15.45
2022-11-24T04:49:22.408Z,21.92
2022-11-24T04:51:48.988Z,25.52
2022-11-24T04:54:16.009Z,10.20
2022-11-24T04:56:43.846Z,11.02
2022-11-24T04:59:15.008Z,20.05
2022-11-24T05:01:46.255Z,13.98
2022-11-24T05:04:14.534Z,19.65
2022-11-24T05:06:41.228Z,12.15
2022-11-24T05:09:08.063Z,16.92
2022-11-24T05:11:34.732Z,15.93
2022-11-24T05:14:01.900Z,13.35
2022-11-24T05:16:28.561Z,15.43
2022-11-24T05:18:55.187Z,18.08
2022-11-24T05:21:21.870Z,16.65
2022-11-24T05:23:48.545Z,12.75
2022-11-24T05:26:15.220Z,19.17
2022-11-24T05:28:41.871Z,16.80
2022-11-24T05:31:08.637Z,17.02
2022-11-24T05:33:35.280Z,19.63
2022-11-24T05:36:03.962Z,13.80
2022-11-24T05:38:31.066Z,26.73
2022-11-24T05:41:04.291Z,20.20
2022-11-24T05:43:31.041Z,23.67
2022-11-24T05:46:01.401Z,17.25
2022-11-24T05:48:28.065Z,10.18
2022-11-24T05:50:56.030Z,16.75
2022-11-24T05:53:23.173Z,14.27
2022-11-24T05:55:49.902Z,14.15
2022-11-24T05:58:16.701Z,17.60
2022-11-24T06:00:43.426Z,13.20
2022-11-24T06:03:11.514Z,23.55
2022-11-24T06:05:38.286Z,14.52
2022-11-24T06:08:05.200Z,16.80
2022-11-24T06:10:31.920Z,25.10
2022-11-24T06:12:58.526Z,17.70
2022-11-24T06:15:25.145Z,15.00
2022-11-24T06:17:55.705Z,23.33
2022-11-24T06:20:25.981Z,13.48
2022-11-24T06:22:57.870Z,18.13
2022-11-24T06:25:24.666Z,28.65
2022-11-24T06:27:51.272Z,15.82
2022-11-24T06:30:18.078Z,16.10
2022-11-24T06:32:49.293Z,11.57
2022-11-24T06:35:16.462Z,16.23
2022-11-24T06:37:43.113Z,18.77
2022-11-24T06:40:10.198Z,29.65
2022-11-24T06:42:37.305Z,17.55
2022-11-24T06:45:09.128Z,14.20
2022-11-24T06:47:36.694Z,17.48
2022-11-24T06:50:03.707Z,19.10
2022-11-24T06:52:30.594Z,23.88
2022-11-24T06:54:59.339Z,24.83
2022-11-24T06:57:27.454Z,20.85
2022-11-24T06:59:54.115Z,13.52
2022-11-24T07:02:23.593Z,13.40
2022-11-24T07:04:50.287Z,17.92
2022-11-24T07:07:17.036Z,20.58
2022-11-24T07:09:43.743Z,23.98
2022-11-24T07:12:10.375Z,18.67
2022-11-24T07:14:37.384Z,19.33
2022-11-24T07:17:04.803Z,20.40
2022-11-24T07:19:31.860Z,21.83
2022-11-24T07:21:58.921Z,20.55
2022-11-24T07:24:25.545Z,15.85
2022-11-24T07:26:52.506Z,12.95
2022-11-24T07:29:19.081Z,11.02
2022-11-24T07:31:46.187Z,17.23
2022-11-24T07:34:14.664Z,11.25
2022-11-24T07:36:41.873Z,14.30
2022-11-24T07:39:08.537Z,16.42
2022-11-24T07:41:35.204Z,22.90
2022-11-24T07:44:01.824Z,18.20
2022-11-24T07:46:28.467Z,20.90
2022-11-24T07:48:55.204Z,15.07
2022-11-24T07:51:21.805Z,19.92
2022-11-24T07:53:48.417Z,15.27
2022-11-24T07:56:15.117Z,16.85
2022-11-24T07:58:41.865Z,15.85
2022-11-24T08:01:12.869Z,21.30
2022-11-24T08:03:39.792Z,12.38
2022-11-24T08:08:53.538Z,8.75
2022-11-24T08:11:20.262Z,12.18
2022-11-24T08:13:46.989Z,9.77
2022-11-24T08:16:16.060Z,13.48
2022-11-24T08:18:43.130Z,15.10
2022-11-24T08:21:14.210Z,12.18
2022-11-24T08:23:41.248Z,11.80
2022-11-24T08:26:11.379Z,15.27
2022-11-24T08:28:38.246Z,7.90
2022-11-24T08:31:13.304Z,6.90
2022-11-24T08:33:40.711Z,10.95
2022-11-24T08:36:12.636Z,10.40
2022-11-24T08:38:39.265Z,10.88
2022-11-24T08:41:08.792Z,6.10
2022-11-24T08:43:35.817Z,7.22
2022-11-24T08:46:07.736Z,6.03
2022-11-24T08:48:34.999Z,6.22
2022-11-24T08:51:13.296Z,5.18
2022-11-24T08:53:42.970Z,5.25
2022-11-24T08:56:10.686Z,12.02
2022-11-24T08:58:38.168Z,3.63
2022-11-24T09:01:04.960Z,6.75
2022-11-24T09:03:31.766Z,4.13
2022-11-24T09:05:58.420Z,6.55
2022-11-24T09:08:25.052Z,3.15
2022-11-24T09:10:51.667Z,7.03
2022-11-24T09:13:18.317Z,4.65
2022-11-24T09:15:44.939Z,4.45
2022-11-24T09:18:11.520Z,5.88
2022-11-24T09:20:38.242Z,7.85
2022-11-24T09:23:04.895Z,5.88
2022-11-24T09:25:31.614Z,9.27
2022-11-24T09:27:59.982Z,3.78
2022-11-24T09:30:26.934Z,6.72
2022-11-24T09:32:56.491Z,3.83
2022-11-24T09:35:23.254Z,4.60
2022-11-24T09:37:50.173Z,4.88
2022-11-24T09:40:17.247Z,4.28
2022-11-24T09:43:12.994Z,5.15
2022-11-24T09:46:04.915Z,4.57
2022-11-24T09:48:44.008Z,3.53
2022-11-24T09:51:13.143Z,4.15
2022-11-24T09:53:56.881Z,7.68
2022-11-24T09:56:26.577Z,3.67
2022-11-24T09:59:10.643Z,4.13
2022-11-24T10:01:41.099Z,4.60
2022-11-24T10:04:30.501Z,8.25
2022-11-24T10:07:12.516Z,5.65
2022-11-24T10:09:56.956Z,8.30
2022-11-24T10:12:49.371Z,9.68
2022-11-24T10:16:13.393Z,5.85
2022-11-24T10:19:47.799Z,7.25
2022-11-24T10:22:35.749Z,10.32
2022-11-24T10:25:25.939Z,5.00
2022-11-24T10:27:59.865Z,7.03
2022-11-24T10:30:26.503Z,8.93
2022-11-24T10:32:58.823Z,7.28
2022-11-24T10:35:35.209Z,7.05
2022-11-24T10:38:32.311Z,8.32
2022-11-24T10:41:06.427Z,8.43
2022-11-24T10:43:33.284Z,7.35
2022-11-24T10:46:10.052Z,10.27
2022-11-24T10:48:49.881Z,6.55
2022-11-24T10:52:06.027Z,10.30
2022-11-24T10:54:33.290Z,7.03
2022-11-24T10:56:59.953Z,13.52
2022-11-24T10:59:32.069Z,7.15
2022-11-24T11:01:59.296Z,10.77
2022-11-24T11:04:29.493Z,13.38
2022-11-24T11:07:14.575Z,13.45
2022-11-24T11:09:41.210Z,11.93
2022-11-24T11:12:46.616Z,10.57
2022-11-24T11:15:31.171Z,8.15
2022-11-24T11:18:00.262Z,8.95
2022-11-24T11:20:33.612Z,23.30
2022-11-24T11:23:13.669Z,6.65
2022-11-24T11:25:41.173Z,10.27
2022-11-24T11:28:18.709Z,8.60
2022-11-24T11:31:22.615Z,15.48
2022-11-24T11:34:26.782Z,13.50
2022-11-24T11:36:57.282Z,7.50
2022-11-24T11:39:35.874Z,7.78
2022-11-24T11:45:31.429Z,11.93
2022-11-24T11:48:18.238Z,13.32
2022-11-24T11:53:45.117Z,11.05
2022-11-24T11:56:28.546Z,12.90
2022-11-24T11:58:55.200Z,6.63
2022-11-24T12:01:30.652Z,14.20
2022-11-24T12:04:03.845Z,15.15
2022-11-24T12:06:37.758Z,15.15
2022-11-24T12:09:41.973Z,15.55
2022-11-24T12:12:14.530Z,12.88
2022-11-24T12:15:00.006Z,11.35
2022-11-24T12:17:29.436Z,13.30
2022-11-24T12:20:25.383Z,9.80
2022-11-24T12:23:22.048Z,3.13
2022-11-24T12:26:01.440Z,5.97
2022-11-24T12:28:51.047Z,11.82
2022-11-24T12:31:27.247Z,9.75
2022-11-24T12:34:23.323Z,8.73
2022-11-24T12:37:07.543Z,9.82
2022-11-24T12:39:35.597Z,10.23
2022-11-24T12:42:34.740Z,12.45
2022-11-24T12:45:14.400Z,15.25
2022-11-24T12:47:50.265Z,5.55
2022-11-24T12:50:22.547Z,9.00
2022-11-24T12:53:07.756Z,9.20
2022-11-24T12:55:34.446Z,13.73
2022-11-24T12:58:35.141Z,14.43
2022-11-24T13:01:36.082Z,5.90
2022-11-24T13:04:02.817Z,10.45
2022-11-24T13:06:49.311Z,7.82
2022-11-24T13:09:16.498Z,8.50
2022-11-24T13:11:48.085Z,13.60
2022-11-24T13:14:22.225Z,14.70
2022-11-24T13:19:42.481Z,14.02
2022-11-24T13:22:15.720Z,15.02
2022-11-24T13:24:45.150Z,15.68
2022-11-24T13:27:24.450Z,16.33
2022-11-24T13:29:52.176Z,10.45
2022-11-24T13:32:18.855Z,10.57
2022-11-24T13:34:45.801Z,11.98
2022-11-24T13:37:29.044Z,15.50
2022-11-24T13:40:14.803Z,13.50
2022-11-24T13:43:02.607Z,11.85
2022-11-24T13:45:49.771Z,14.30
2022-11-24T13:48:19.868Z,20.58
2022-11-24T13:50:50.427Z,13.32
2022-11-24T13:53:17.222Z,8.35
2022-11-24T13:55:58.743Z,15.75
2022-11-24T13:58:36.513Z,16.23
2022-11-24T14:01:22.431Z,9.80
2022-11-24T14:04:29.339Z,17.80
2022-11-24T14:06:55.887Z,13.05
2022-11-24T14:09:37.390Z,14.95
2022-11-24T14:12:10.033Z,15.18
2022-11-24T14:14:36.892Z,17.98
2022-11-24T14:17:23.414Z,8.07
2022-11-24T14:19:52.808Z,13.95
2022-11-24T14:22:28.161Z,18.60
2022-11-24T14:24:56.226Z,9.75
2022-11-24T14:27:31.434Z,15.43
2022-11-24T14:30:18.893Z,15.35
2022-11-24T14:32:58.851Z,15.10
2022-11-24T14:35:25.560Z,13.10
2022-11-24T14:37:54.510Z,20.00
2022-11-24T14:40:43.414Z,13.55
2022-11-24T14:43:29.812Z,12.50
2022-11-24T14:46:02.328Z,19.30
2022-11-24T14:48:32.614Z,17.23
2022-11-24T14:51:08.689Z,17.25
2022-11-24T14:53:35.802Z,16.65
2022-11-24T14:56:32.761Z,17.33
2022-11-24T14:58:59.619Z,12.65
2022-11-24T15:01:29.629Z,14.55
2022-11-24T15:04:39.044Z,11.35
2022-11-24T15:07:18.732Z,11.32
2022-11-24T15:09:48.328Z,9.93
2022-11-24T15:12:36.775Z,16.48
2022-11-24T15:15:15.892Z,18.70
2022-11-24T15:17:51.357Z,10.90
2022-11-24T15:20:42.402Z,13.77
2022-11-24T15:23:35.704Z,16.50
2022-11-24T15:26:02.303Z,14.90
2022-11-24T15:28:32.502Z,25.77
2022-11-24T15:31:05.458Z,14.48
2022-11-24T15:33:32.608Z,23.17
2022-11-24T15:35:59.785Z,14.95
2022-11-24T15:38:26.489Z,10.50
2022-11-24T15:40:55.231Z,13.57
2022-11-24T15:43:33.936Z,19.00
2022-11-24T15:46:02.102Z,17.75
2022-11-24T15:48:32.294Z,20.45
2022-11-24T15:51:01.662Z,25.38
2022-11-24T15:53:46.061Z,23.95
2022-11-24T15:56:16.139Z,18.17
2022-11-24T15:58:42.749Z,17.88
2022-11-24T16:01:09.423Z,20.17
2022-11-24T16:03:47.028Z,17.38
2022-11-24T16:06:24.527Z,28.60
2022-11-24T16:08:55.431Z,18.75
2022-11-24T16:11:22.875Z,14.95
2022-11-24T16:13:53.361Z,24.48
2022-11-24T16:16:21.786Z,22.02
2022-11-24T16:18:48.618Z,20.95
2022-11-24T16:21:15.361Z,17.83
2022-11-24T16:23:42.113Z,18.08
2022-11-24T16:26:10.094Z,17.50
2022-11-24T16:28:38.102Z,18.20
2022-11-24T16:31:04.860Z,17.60
2022-11-24T16:33:31.586Z,32.10
2022-11-24T16:35:58.700Z,32.20
2022-11-24T16:38:25.421Z,33.65
2022-11-24T16:40:53.969Z,29.08
2022-11-24T16:43:21.518Z,30.70
2022-11-24T16:46:19.488Z,20.35
2022-11-24T16:48:47.385Z,29.40
2022-11-24T16:51:16.395Z,27.77
2022-11-24T16:53:44.927Z,15.85
2022-11-24T16:56:11.971Z,26.23
2022-11-24T16:58:40.316Z,23.25
2022-11-24T17:01:09.152Z,19.15
2022-11-24T17:03:37.387Z,23.55
2022-11-24T17:06:08.929Z,25.98
2022-11-24T17:08:37.238Z,20.55
2022-11-24T17:11:10.964Z,20.50
2022-11-24T17:13:38.931Z,28.27
2022-11-24T17:16:11.582Z,23.42
2022-11-24T17:18:39.021Z,23.83
2022-11-24T17:21:09.851Z,19.63
2022-11-24T17:23:37.100Z,24.00
2022-11-24T17:26:20.583Z,18.95
2022-11-24T17:28:50.032Z,28.02
2022-11-24T17:31:25.005Z,21.27
2022-11-24T17:33:53.677Z,21.30
2022-11-24T17:36:20.461Z,25.30
2022-11-24T17:38:50.597Z,33.55
2022-11-24T17:41:17.967Z,28.67
2022-11-24T17:43:51.642Z,34.30
2022-11-24T17:46:18.363Z,24.50
2022-11-24T17:48:45.263Z,35.03
2022-11-24T17:51:13.671Z,20.98
2022-11-24T17:53:42.111Z,20.33
2022-11-24T17:56:12.504Z,21.25
2022-11-24T17:58:42.913Z,20.65
2022-11-24T18:01:10.650Z,17.25
2022-11-24T18:03:39.275Z,31.48
2022-11-24T18:06:13.752Z,18.55
2022-11-24T18:08:42.899Z,26.35
2022-11-24T18:11:10.585Z,28.60
2022-11-24T18:16:24.547Z,28.17
2022-11-24T18:19:07.441Z,23.77
2022-11-24T18:21:37.917Z,28.20
2022-11-24T18:24:04.802Z,25.63
2022-11-24T18:26:31.489Z,21.52
2022-11-24T18:28:58.159Z,17.80
2022-11-24T18:31:26.341Z,12.68
2022-11-24T18:33:53.167Z,19.02
2022-11-24T18:36:23.566Z,19.33
2022-11-24T18:38:53.876Z,18.50
2022-11-24T18:41:21.586Z,18.38
2022-11-24T18:43:48.275Z,26.58
2022-11-24T18:46:17.389Z,12.70
2022-11-24T18:48:45.270Z,21.13
2022-11-24T18:51:15.804Z,15.13
2022-11-24T18:53:43.868Z,19.30
2022-11-24T18:56:20.572Z,22.27
2022-11-24T18:58:48.347Z,20.85
2022-11-24T19:01:21.080Z,26.15
2022-11-24T19:03:49.754Z,29.75
2022-11-24T19:06:23.853Z,17.98
2022-11-24T19:08:53.264Z,19.85
2022-11-24T19:11:28.253Z,13.00
2022-11-24T19:13:58.766Z,15.93
2022-11-24T19:16:25.524Z,16.63
2022-11-24T19:18:54.240Z,12.82
2022-11-24T19:21:22.711Z,16.80
2022-11-24T19:23:50.322Z,14.23
2022-11-24T19:26:17.420Z,19.27
2022-11-24T19:28:44.560Z,10.98
2022-11-24T19:31:13.064Z,10.73
2022-11-24T19:33:40.965Z,15.70
2022-11-24T19:36:19.050Z,16.70
2022-11-24T19:38:59.161Z,16.48
2022-11-24T19:41:31.430Z,16.35
2022-11-24T19:43:59.097Z,24.40
2022-11-24T19:46:27.875Z,21.15
2022-11-24T19:49:12.002Z,15.93
2022-11-24T19:51:39.519Z,15.60
2022-11-24T19:54:08.172Z,14.68
2022-11-24T19:56:36.421Z,22.73
2022-11-24T19:59:07.246Z,7.95
2022-11-24T20:01:37.396Z,15.07
2022-11-24T20:04:08.741Z,8.90
2022-11-24T20:06:37.866Z,17.80
2022-11-24T20:09:06.620Z,15.23
2022-11-24T20:11:35.321Z,19.58
2022-11-24T20:14:03.524Z,19.95
2022-11-24T20:16:31.508Z,13.50
2022-11-24T20:19:08.514Z,19.83
2022-11-24T20:21:36.558Z,15.77
2022-11-24T20:24:04.349Z,15.10
2022-11-24T20:26:33.722Z,11.90
2022-11-24T20:29:01.010Z,12.30
2022-11-24T20:31:31.990Z,13.95
2022-11-24T20:34:00.624Z,12.02
2022-11-24T20:36:29.852Z,11.02
2022-11-24T20:38:58.209Z,10.18
2022-11-24T20:41:27.362Z,18.33
2022-11-24T20:44:00.738Z,12.13
2022-11-24T20:46:32.697Z,16.15
2022-11-24T20:49:00.070Z,17.42
2022-11-24T20:51:29.580Z,20.75
2022-11-24T20:53:58.694Z,17.63
2022-11-24T20:56:31.075Z,20.25
2022-11-24T20:58:58.211Z,12.95
2022-11-24T21:01:28.353Z,19.63
2022-11-24T21:03:57.141Z,13.27
2022-11-24T21:06:24.490Z,13.65
2022-11-24T21:08:53.070Z,15.90
2022-11-24T21:11:22.270Z,11.23
2022-11-24T21:13:50.008Z,15.25
2022-11-24T21:16:38.104Z,17.90
2022-11-24T21:19:07.306Z,10.27
2022-11-24T21:21:35.934Z,15.27
2022-11-24T21:24:27.440Z,7.38
2022-11-24T21:26:54.237Z,14.40
2022-11-24T21:29:23.766Z,13.70
2022-11-24T21:31:50.723Z,14.68
2022-11-24T21:34:18.940Z,13.68
2022-11-24T21:36:48.266Z,23.20
2022-11-24T21:39:18.004Z,12.35
2022-11-24T21:41:44.738Z,11.35
2022-11-24T21:44:14.890Z,9.18
2022-11-24T21:46:49.508Z,12.65
2022-11-24T21:49:21.035Z,16.92
2022-11-24T21:51:47.815Z,10.63
2022-11-24T21:54:14.436Z,13.93
2022-11-24T21:56:41.080Z,15.00
2022-11-24T21:59:07.813Z,12.35
2022-11-24T22:01:34.576Z,15.40
2022-11-24T22:04:01.754Z,18.25
2022-11-24T22:06:28.539Z,13.27
2022-11-24T22:08:55.300Z,12.27
2022-11-24T22:11:23.821Z,12.73
2022-11-24T22:13:50.821Z,18.58
2022-11-24T22:16:19.492Z,14.55
2022-11-24T22:18:46.621Z,19.33
2022-11-24T22:21:16.198Z,18.00
2022-11-24T22:23:44.734Z,16.80
2022-11-24T22:26:17.079Z,16.20
2022-11-24T22:28:45.017Z,15.63
2022-11-24T22:31:34.946Z,13.60
2022-11-24T22:34:01.652Z,12.70
2022-11-24T22:36:29.965Z,24.90
2022-11-24T22:39:03.658Z,18.58
2022-11-24T22:41:31.930Z,17.90
2022-11-24T22:43:59.006Z,17.92
2022-11-24T22:46:27.193Z,11.13
2022-11-24T22:48:54.984Z,14.38
2022-11-24T22:51:24.335Z,15.70
2022-11-24T22:54:02.198Z,11.93
2022-11-24T22:56:30.380Z,10.65
2022-11-24T22:58:57.951Z,17.13
2022-11-24T23:01:25.449Z,13.85
2022-11-24T23:03:54.472Z,10.95
2022-11-24T23:06:26.124Z,14.70
2022-11-24T23:08:53.445Z,21.70
2022-11-24T23:11:31.582Z,26.48
2022-11-24T23:14:03.393Z,11.50
2022-11-24T23:16:30.953Z,13.90
2022-11-24T23:18:58.566Z,14.55
2022-11-24T23:21:30.201Z,8.45
2022-11-24T23:23:59.332Z,14.90
2022-11-24T23:26:28.207Z,12.95
2022-11-24T23:28:54.819Z,16.00
2022-11-24T23:31:27.229Z,10.88
2022-11-24T23:33:54.715Z,15.00
2022-11-24T23:36:21.622Z,9.02
2022-11-24T23:38:49.474Z,11.85
2022-11-24T23:41:20.447Z,11.38
2022-11-24T23:43:47.276Z,11.68
2022-11-24T23:46:20.457Z,10.93
2022-11-24T23:48:47.499Z,17.67
2022-11-24T23:51:19.172Z,14.07
2022-11-24T23:53:46.288Z,9.18
2022-11-24T23:56:15.291Z,19.67
2022-11-24T23:58:42.109Z,10.07
